Terminal Aerodrome Forecast
Issued by NWS Springfield, MO

Home | Current Version | Previous Version | Text Only | Print | Product List | Glossary On
Versions: 1 2 3 4 5 6 7 8 9 10 11 12 13 14 15 16 17 18 19 20 21 22 23 24 25 26 27 28 29 30
410
FTUS43 KSGF 241135
TAFSGF
TAF
KSGF 241135Z 2412/2512 15010KT P6SM SCT035 BKN090
     FM241500 16012KT P6SM VCTS SCT025CB BKN060
      TEMPO 2416/2420 6SM -TSRA BKN025CB OVC050
     FM250000 16008KT P6SM SCT040 SCT120
     FM250600 17010KT P6SM VCSH SCT040 BKN090=

USA.gov is the U.S. government's official web portal to all federal, state and local government web resources and services.